Shep, Texas
Current Conditions -  °F | °C
As of 3:58 PM on Thursday 27 Nov 2014 (Local Time) from KDYS Reporting Station
Clear Clear  
Wind Chill: 61°   Ceiling: Unl
Heat Index: 61°   Visibility: 10mi
Dew Point: 33°   Wind: 12mph
Humidity: 35%   Direction: 180°S
Pressure: 30.35"   Gusts: NA
Location:  32.0181°N, 100.153°W
Report Text: KDYS 272158Z AUTO 18010KT 10SM CLR 16/00 A3035 RMK AO2 SLP276 T01590003 $
Loading
Personal Weather Stations






























Interactive Weather Map New forecast layout! Learn more

10-Day Weather Forecast

Advertisements
Track Severe Weather on mobile